createdAt,value
2023-04-02T00:01:23.689Z,24.15
2023-04-02T00:04:04.483Z,24.05
2023-04-02T00:06:33.418Z,24.09
2023-04-02T00:09:01.641Z,24.06
2023-04-02T00:11:30.329Z,24.06
2023-04-02T00:14:00.373Z,24.07
2023-04-02T00:16:27.570Z,24.08
2023-04-02T00:18:56.029Z,24.09
2023-04-02T00:21:25.838Z,24.15
2023-04-02T00:23:53.921Z,24.15
2023-04-02T00:26:21.808Z,24.19
2023-04-02T00:28:48.932Z,24.18
2023-04-02T00:31:17.162Z,24.19
2023-04-02T00:33:44.062Z,24.15
2023-04-02T00:36:10.989Z,24.14
2023-04-02T00:38:39.198Z,24.12
2023-04-02T00:41:07.378Z,24.13
2023-04-02T00:43:36.523Z,24.10
2023-04-02T00:46:04.748Z,24.06
2023-04-02T00:48:37.765Z,24.03
2023-04-02T00:51:10.531Z,24.01
2023-04-02T00:53:39.127Z,23.94
2023-04-02T00:56:12.631Z,24.03
2023-04-02T00:58:39.837Z,24.01
2023-04-02T01:01:15.743Z,24.04
2023-04-02T01:03:42.733Z,24.03
2023-04-02T01:06:11.232Z,24.07
2023-04-02T01:08:44.437Z,24.11
2023-04-02T01:11:20.199Z,24.10
2023-04-02T01:13:52.134Z,24.12
2023-04-02T01:16:22.809Z,24.12
2023-04-02T01:18:52.985Z,24.10
2023-04-02T01:21:37.815Z,24.08
2023-04-02T01:24:07.224Z,24.07
2023-04-02T01:26:39.673Z,24.09
2023-04-02T01:29:10.418Z,24.06
2023-04-02T01:31:38.269Z,23.89
2023-04-02T01:34:06.637Z,24.05
2023-04-02T01:36:37.497Z,24.00
2023-04-02T01:39:09.741Z,23.94
2023-04-02T01:41:39.123Z,23.95
2023-04-02T01:44:07.623Z,23.95
2023-04-02T01:46:39.879Z,23.95
2023-04-02T01:49:11.550Z,23.96
2023-04-02T01:51:40.010Z,23.97
2023-04-02T01:54:07.588Z,24.03
2023-04-02T01:56:35.122Z,24.05
2023-04-02T01:59:02.618Z,24.05
2023-04-02T02:01:33.410Z,24.06
2023-04-02T02:04:01.967Z,24.06
2023-04-02T02:06:29.028Z,24.07
2023-04-02T02:08:57.757Z,24.04
2023-04-02T02:11:26.910Z,24.03
2023-04-02T02:13:55.483Z,24.03
2023-04-02T02:16:23.076Z,24.02
2023-04-02T02:18:51.616Z,24.02
2023-04-02T02:21:24.150Z,23.97
2023-04-02T02:23:51.268Z,23.92
2023-04-02T02:26:18.262Z,23.91
2023-04-02T02:28:46.698Z,23.89
2023-04-02T02:31:16.262Z,23.90
2023-04-02T02:33:45.786Z,23.92
2023-04-02T02:36:16.375Z,23.91
2023-04-02T02:38:54.687Z,23.95
2023-04-02T02:41:25.950Z,24.01
2023-04-02T02:43:57.214Z,24.02
2023-04-02T02:46:25.515Z,24.01
2023-04-02T02:48:53.821Z,24.00
2023-04-02T02:51:24.952Z,23.98
2023-04-02T02:53:55.167Z,23.95
2023-04-02T02:56:23.277Z,24.00
2023-04-02T02:58:51.759Z,23.95
2023-04-02T03:01:19.207Z,23.95
2023-04-02T03:03:46.736Z,23.94
2023-04-02T03:06:15.202Z,23.93
2023-04-02T03:08:44.753Z,23.91
2023-04-02T03:11:16.599Z,23.85
2023-04-02T03:13:45.972Z,23.83
2023-04-02T03:16:16.507Z,23.83
2023-04-02T03:18:46.390Z,23.85
2023-04-02T03:21:25.351Z,23.84
2023-04-02T03:23:54.682Z,23.92
2023-04-02T03:26:25.354Z,23.94
2023-04-02T03:28:55.888Z,23.94
2023-04-02T03:31:25.671Z,23.97
2023-04-02T03:33:55.407Z,23.97
2023-04-02T03:36:25.395Z,23.95
2023-04-02T03:38:54.538Z,23.95
2023-04-02T03:41:26.273Z,23.91
2023-04-02T03:43:56.074Z,23.93
2023-04-02T03:46:26.811Z,23.89
2023-04-02T03:48:55.826Z,23.87
2023-04-02T03:51:26.478Z,23.85
2023-04-02T03:53:53.631Z,23.83
2023-04-02T03:56:26.475Z,23.81
2023-04-02T03:58:55.285Z,23.78
2023-04-02T04:01:25.918Z,23.80
2023-04-02T04:03:54.001Z,23.80
2023-04-02T04:06:23.896Z,23.81
2023-04-02T04:08:53.121Z,23.83
2023-04-02T04:11:24.547Z,23.80
2023-04-02T04:13:56.058Z,24.03
2023-04-02T04:16:26.331Z,24.01
2023-04-02T04:18:54.265Z,23.94
2023-04-02T04:21:22.823Z,23.91
2023-04-02T04:23:50.554Z,24.00
2023-04-02T04:26:20.047Z,23.96
2023-04-02T04:28:52.915Z,24.04
2023-04-02T04:31:24.598Z,24.02
2023-04-02T04:33:55.422Z,24.04
2023-04-02T04:36:24.140Z,23.95
2023-04-02T04:38:51.464Z,24.07
2023-04-02T04:41:23.406Z,23.94
2023-04-02T04:43:53.294Z,23.83
2023-04-02T04:46:23.404Z,23.72
2023-04-02T04:48:53.417Z,23.53
2023-04-02T04:51:22.374Z,23.44
2023-04-02T04:53:50.434Z,23.25
2023-04-02T04:56:19.759Z,23.27
2023-04-02T04:58:49.579Z,23.31
2023-04-02T05:01:20.120Z,23.41
2023-04-02T05:03:51.415Z,23.59
2023-04-02T05:06:21.922Z,23.65
2023-04-02T05:08:51.423Z,23.75
2023-04-02T05:11:23.681Z,23.74
2023-04-02T05:13:53.433Z,23.81
2023-04-02T05:16:24.481Z,24.04
2023-04-02T05:18:53.808Z,24.36
2023-04-02T05:21:23.487Z,24.61
2023-04-02T05:23:52.740Z,24.73
2023-04-02T05:26:21.852Z,24.75
2023-04-02T05:28:52.378Z,24.72
2023-04-02T05:31:22.566Z,24.71
2023-04-02T05:33:50.829Z,24.70
2023-04-02T05:36:21.450Z,24.68
2023-04-02T05:38:49.185Z,24.70
2023-04-02T05:41:21.872Z,24.65
2023-04-02T05:43:49.659Z,24.66
2023-04-02T05:46:17.377Z,24.68
2023-04-02T05:48:48.846Z,24.73
2023-04-02T05:51:18.692Z,24.61
2023-04-02T05:53:48.715Z,24.62
2023-04-02T05:56:18.426Z,24.60
2023-04-02T05:58:47.920Z,24.58
2023-04-02T06:01:32.562Z,24.53
2023-04-02T06:04:03.564Z,24.47
2023-04-02T06:06:42.568Z,24.46
2023-04-02T06:09:11.472Z,24.42
2023-04-02T06:11:40.169Z,24.45
2023-04-02T06:14:08.300Z,24.35
2023-04-02T06:16:35.217Z,24.35
2023-04-02T06:19:02.705Z,24.31
2023-04-02T06:21:29.514Z,24.32
2023-04-02T06:24:00.225Z,24.33
2023-04-02T06:26:29.499Z,24.24
2023-04-02T06:29:00.932Z,24.31
2023-04-02T06:31:29.395Z,24.35
2023-04-02T06:33:56.432Z,24.42
2023-04-02T06:36:24.057Z,24.34
2023-04-02T06:38:52.003Z,24.33
2023-04-02T06:41:21.632Z,24.34
2023-04-02T06:43:51.359Z,24.32
2023-04-02T06:46:21.750Z,24.25
2023-04-02T06:48:50.417Z,24.30
2023-04-02T06:51:19.019Z,24.29
2023-04-02T06:53:47.546Z,24.29
2023-04-02T06:56:20.821Z,24.25
2023-04-02T06:58:49.128Z,24.26
2023-04-02T07:01:17.854Z,24.22
2023-04-02T07:03:45.000Z,24.12
2023-04-02T07:06:14.049Z,24.09
2023-04-02T07:08:40.854Z,24.07
2023-04-02T07:11:07.721Z,24.13
2023-04-02T07:13:36.385Z,24.24
2023-04-02T07:16:05.064Z,24.46
2023-04-02T07:18:33.230Z,24.58
2023-04-02T07:21:00.215Z,24.60
2023-04-02T07:23:27.072Z,24.60
2023-04-02T07:25:54.376Z,24.52
2023-04-02T07:28:22.886Z,24.59
2023-04-02T07:30:50.909Z,24.53
2023-04-02T07:33:20.525Z,24.64
2023-04-02T07:35:48.126Z,24.68
2023-04-02T07:38:15.047Z,24.12
2023-04-02T07:40:41.943Z,23.89
2023-04-02T07:43:08.940Z,23.60
2023-04-02T07:45:35.979Z,23.80
2023-04-02T07:48:04.819Z,24.01
2023-04-02T07:50:33.026Z,24.04
2023-04-02T07:53:00.306Z,24.08
2023-04-02T07:55:27.200Z,24.08
2023-04-02T07:57:55.010Z,24.69
2023-04-02T08:00:22.614Z,25.29
2023-04-02T08:02:49.549Z,25.46
2023-04-02T08:05:16.892Z,25.46
2023-04-02T08:07:51.896Z,25.55
2023-04-02T08:10:18.844Z,25.64
2023-04-02T08:12:45.725Z,25.55
2023-04-02T08:15:14.365Z,25.36
2023-04-02T08:17:41.427Z,25.35
2023-04-02T08:20:13.841Z,25.30
2023-04-02T08:22:40.673Z,25.29
2023-04-02T08:25:09.542Z,25.30
2023-04-02T08:27:36.379Z,25.32
2023-04-02T08:30:03.519Z,25.31
2023-04-02T08:32:30.339Z,25.34
2023-04-02T08:34:57.177Z,25.30
2023-04-02T08:37:23.985Z,25.36
2023-04-02T08:39:50.792Z,25.31
2023-04-02T08:42:22.933Z,25.30
2023-04-02T08:44:54.816Z,25.33
2023-04-02T08:47:22.598Z,25.29
2023-04-02T08:49:50.872Z,25.32
2023-04-02T08:52:21.163Z,25.29
2023-04-02T08:54:48.159Z,25.33
2023-04-02T08:57:19.461Z,25.33
2023-04-02T08:59:49.477Z,25.28
2023-04-02T09:02:25.932Z,25.28
2023-04-02T09:04:53.218Z,25.20
2023-04-02T09:07:20.058Z,25.12
2023-04-02T09:09:48.242Z,25.02
2023-04-02T09:12:17.707Z,25.04
2023-04-02T09:14:45.537Z,25.11
2023-04-02T09:17:17.634Z,25.11
2023-04-02T09:19:49.285Z,25.19
2023-04-02T09:22:19.981Z,25.31
2023-04-02T09:24:51.287Z,25.17
2023-04-02T09:27:18.900Z,25.40
2023-04-02T09:29:46.923Z,25.28
2023-04-02T09:32:40.183Z,25.23
2023-04-02T09:35:18.404Z,25.11
2023-04-02T09:38:10.920Z,25.11
2023-04-02T09:40:42.904Z,25.17
2023-04-02T09:43:11.595Z,25.12
2023-04-02T09:45:38.778Z,24.99
2023-04-02T09:48:17.683Z,24.99
2023-04-02T09:50:44.614Z,25.01
2023-04-02T09:53:25.845Z,25.01
2023-04-02T09:56:06.875Z,25.03
2023-04-02T09:58:33.832Z,24.96
2023-04-02T10:01:00.907Z,24.96
2023-04-02T10:03:30.160Z,25.00
2023-04-02T10:06:07.778Z,25.05
2023-04-02T10:08:34.764Z,25.16
2023-04-02T10:11:03.326Z,25.18
2023-04-02T10:13:31.288Z,25.27
2023-04-02T10:16:00.738Z,25.31
2023-04-02T10:18:36.901Z,25.31
2023-04-02T10:21:04.703Z,25.40
2023-04-02T10:23:32.171Z,25.57
2023-04-02T10:26:05.345Z,25.74
2023-04-02T10:28:40.204Z,25.70
2023-04-02T10:31:10.143Z,25.99
2023-04-02T10:33:39.771Z,26.08
2023-04-02T10:36:09.170Z,26.73
2023-04-02T10:38:41.695Z,26.56
2023-04-02T10:41:13.763Z,26.17
2023-04-02T10:43:46.778Z,26.22
2023-04-02T10:46:19.183Z,26.17
2023-04-02T10:48:52.706Z,26.07
2023-04-02T10:51:28.177Z,25.84
2023-04-02T10:53:58.395Z,25.96
2023-04-02T10:56:26.728Z,26.08
2023-04-02T10:58:57.347Z,26.50
2023-04-02T11:01:25.692Z,26.98
2023-04-02T11:03:58.143Z,27.32
2023-04-02T11:06:27.649Z,27.40
2023-04-02T11:08:58.312Z,27.29
2023-04-02T11:11:26.889Z,27.38
2023-04-02T11:13:55.849Z,27.39
2023-04-02T11:16:22.937Z,27.11
2023-04-02T11:19:10.191Z,26.71
2023-04-02T11:21:51.445Z,26.39
2023-04-02T11:24:35.555Z,26.25
2023-04-02T11:27:07.027Z,26.18
2023-04-02T11:29:36.211Z,26.12
2023-04-02T11:32:14.003Z,26.18
2023-04-02T11:35:05.950Z,26.17
2023-04-02T11:37:36.516Z,26.15
2023-04-02T11:40:07.269Z,26.20
2023-04-02T11:42:34.831Z,26.18
2023-04-02T11:45:22.225Z,26.19
2023-04-02T11:48:03.964Z,26.28
2023-04-02T11:50:32.037Z,26.31
2023-04-02T11:53:01.957Z,26.33
2023-04-02T11:55:29.935Z,26.37
2023-04-02T11:58:29.920Z,26.38
2023-04-02T12:01:17.458Z,26.23
2023-04-02T12:04:01.300Z,26.08
2023-04-02T12:06:31.087Z,25.95
2023-04-02T12:09:03.515Z,25.85
2023-04-02T12:11:31.406Z,25.88
2023-04-02T12:13:58.571Z,25.95
2023-04-02T12:16:25.660Z,25.99
2023-04-02T12:18:53.054Z,26.15
2023-04-02T12:21:21.371Z,26.24
2023-04-02T12:23:48.840Z,26.26
2023-04-02T12:26:28.079Z,26.21
2023-04-02T12:28:55.049Z,26.16
2023-04-02T12:31:24.169Z,26.15
2023-04-02T12:33:51.814Z,26.16
2023-04-02T12:36:19.815Z,26.16
2023-04-02T12:38:47.926Z,26.17
2023-04-02T12:41:22.789Z,26.06
2023-04-02T12:43:58.335Z,26.09
2023-04-02T12:46:25.323Z,26.21
2023-04-02T12:48:52.848Z,26.24
2023-04-02T12:51:19.791Z,26.24
2023-04-02T12:53:50.298Z,26.25
2023-04-02T12:56:18.957Z,26.23
2023-04-02T12:58:53.211Z,26.20
2023-04-02T13:01:22.097Z,26.24
2023-04-02T13:04:07.804Z,26.40
2023-04-02T13:06:35.497Z,26.42
2023-04-02T13:09:03.644Z,26.46
2023-04-02T13:11:34.291Z,26.37
2023-04-02T13:14:02.326Z,26.38
2023-04-02T13:16:34.145Z,26.36
2023-04-02T13:19:25.076Z,26.32
2023-04-02T13:21:52.030Z,26.32
2023-04-02T13:24:19.581Z,26.40
2023-04-02T13:26:46.634Z,26.46
2023-04-02T13:29:18.687Z,26.39
2023-04-02T13:31:47.296Z,26.26
2023-04-02T13:34:14.193Z,26.21
2023-04-02T13:36:41.017Z,26.12
2023-04-02T13:39:08.029Z,26.08
2023-04-02T13:41:37.706Z,25.99
2023-04-02T13:44:04.756Z,25.97
2023-04-02T13:46:33.598Z,26.02
2023-04-02T13:49:01.757Z,26.12
2023-04-02T13:51:33.871Z,26.20
2023-04-02T13:54:00.687Z,26.22
2023-04-02T13:56:27.515Z,26.21
2023-04-02T13:58:54.353Z,26.18
2023-04-02T14:01:22.773Z,26.11
2023-04-02T14:03:49.917Z,26.10
2023-04-02T14:06:21.243Z,26.05
2023-04-02T14:08:53.106Z,26.02
2023-04-02T14:11:27.902Z,26.03
2023-04-02T14:14:01.819Z,26.02
2023-04-02T14:16:38.511Z,25.95
2023-04-02T14:19:14.103Z,25.90
2023-04-02T14:21:48.615Z,25.86
2023-04-02T14:24:17.746Z,25.81
2023-04-02T14:26:52.037Z,25.73
2023-04-02T14:29:23.796Z,25.74
2023-04-02T14:31:54.884Z,25.77
2023-04-02T14:34:24.225Z,25.87
2023-04-02T14:36:56.349Z,25.96
2023-04-02T14:39:28.053Z,26.00
2023-04-02T14:41:58.086Z,25.98
2023-04-02T14:44:27.764Z,25.94
2023-04-02T14:46:59.617Z,25.86
2023-04-02T14:49:28.851Z,25.86
2023-04-02T14:52:02.649Z,25.83
2023-04-02T14:54:33.152Z,25.82
2023-04-02T14:57:04.126Z,25.85
2023-04-02T14:59:34.011Z,25.92
2023-04-02T15:02:03.403Z,25.88
2023-04-02T15:04:33.396Z,25.85
2023-04-02T15:07:05.381Z,25.83
2023-04-02T15:09:35.028Z,25.86
2023-04-02T15:12:06.338Z,25.82
2023-04-02T15:14:36.190Z,25.71
2023-04-02T15:17:02.988Z,25.68
2023-04-02T15:19:29.794Z,25.86
2023-04-02T15:22:08.718Z,25.92
2023-04-02T15:24:41.963Z,25.97
2023-04-02T15:27:24.398Z,25.95
2023-04-02T15:29:55.963Z,25.93
2023-04-02T15:32:28.741Z,25.88
2023-04-02T15:34:59.362Z,25.82
2023-04-02T15:37:31.370Z,25.79
2023-04-02T15:40:07.585Z,25.74
2023-04-02T15:42:37.829Z,25.73
2023-04-02T15:45:23.194Z,25.69
2023-04-02T15:47:58.288Z,25.59
2023-04-02T15:50:36.333Z,25.52
2023-04-02T15:53:09.526Z,25.46
2023-04-02T15:55:41.359Z,25.44
2023-04-02T15:58:20.532Z,25.39
2023-04-02T16:00:51.476Z,25.40
2023-04-02T16:03:32.503Z,25.42
2023-04-02T16:06:10.940Z,25.43
2023-04-02T16:08:45.350Z,25.44
2023-04-02T16:11:14.594Z,25.47
2023-04-02T16:13:42.295Z,25.52
2023-04-02T16:16:11.910Z,25.44
2023-04-02T16:18:43.246Z,25.47
2023-04-02T16:21:13.644Z,25.49
2023-04-02T16:23:41.237Z,25.48
2023-04-02T16:26:17.447Z,25.46
2023-04-02T16:28:51.111Z,25.46
2023-04-02T16:31:23.202Z,25.44
2023-04-02T16:33:56.682Z,25.32
2023-04-02T16:36:29.527Z,25.27
2023-04-02T16:38:58.935Z,25.20
2023-04-02T16:41:33.957Z,25.20
2023-04-02T16:44:07.533Z,25.18
2023-04-02T16:46:40.376Z,25.18
2023-04-02T16:49:17.212Z,25.20
2023-04-02T16:51:48.027Z,25.22
2023-04-02T16:54:18.869Z,25.25
2023-04-02T16:56:54.561Z,25.24
2023-04-02T16:59:27.130Z,25.24
2023-04-02T17:01:58.104Z,25.23
2023-04-02T17:04:42.625Z,25.24
2023-04-02T17:07:15.182Z,25.22
2023-04-02T17:09:48.560Z,25.21
2023-04-02T17:12:16.983Z,25.21
2023-04-02T17:14:50.127Z,25.18
2023-04-02T17:17:17.257Z,25.16
2023-04-02T17:19:44.576Z,25.06
2023-04-02T17:22:14.552Z,25.01
2023-04-02T17:24:44.304Z,24.98
2023-04-02T17:27:16.282Z,25.00
2023-04-02T17:29:44.605Z,25.00
2023-04-02T17:32:17.350Z,24.98
2023-04-02T17:34:44.155Z,24.97
2023-04-02T17:37:18.967Z,25.01
2023-04-02T17:39:49.329Z,25.03
2023-04-02T17:42:20.731Z,25.02
2023-04-02T17:44:53.653Z,25.00
2023-04-02T17:47:23.034Z,25.00
2023-04-02T17:49:56.418Z,25.01
2023-04-02T17:52:24.682Z,25.00
2023-04-02T17:54:57.210Z,25.00
2023-04-02T17:57:32.295Z,24.99
2023-04-02T18:00:03.384Z,24.98
2023-04-02T18:02:39.103Z,24.95
2023-04-02T18:05:10.414Z,24.89
2023-04-02T18:07:41.672Z,24.83
2023-04-02T18:10:13.425Z,24.82
2023-04-02T18:12:50.522Z,24.83
2023-04-02T18:15:34.805Z,24.81
2023-04-02T18:18:06.173Z,24.79
2023-04-02T18:20:36.925Z,24.83
2023-04-02T18:23:08.319Z,24.82
2023-04-02T18:25:45.923Z,24.84
2023-04-02T18:28:21.767Z,24.85
2023-04-02T18:30:54.287Z,24.83
2023-04-02T18:33:32.602Z,24.81
2023-04-02T18:36:02.060Z,24.83
2023-04-02T18:38:31.542Z,24.84
2023-04-02T18:41:10.412Z,24.81
2023-04-02T18:43:42.484Z,24.80
2023-04-02T18:46:14.521Z,24.75
2023-04-02T18:48:47.754Z,24.76
2023-04-02T18:51:17.218Z,24.68
2023-04-02T18:53:44.185Z,24.66
2023-04-02T18:56:13.768Z,24.64
2023-04-02T18:58:42.186Z,24.65
2023-04-02T19:01:11.393Z,24.64
2023-04-02T19:03:41.337Z,24.66
2023-04-02T19:06:12.483Z,24.67
2023-04-02T19:08:41.600Z,24.66
2023-04-02T19:11:11.144Z,24.66
2023-04-02T19:13:38.008Z,24.67
2023-04-02T19:16:21.971Z,24.69
2023-04-02T19:18:54.305Z,24.69
2023-04-02T19:21:25.149Z,24.65
2023-04-02T19:24:00.334Z,24.66
2023-04-02T19:26:30.266Z,24.63
2023-04-02T19:29:04.223Z,24.63
2023-04-02T19:31:35.600Z,24.61
2023-04-02T19:34:08.071Z,24.60
2023-04-02T19:36:41.933Z,24.58
2023-04-02T19:39:21.386Z,24.52
2023-04-02T19:41:52.060Z,24.50
2023-04-02T19:44:18.937Z,24.50
2023-04-02T19:46:45.892Z,24.51
2023-04-02T19:49:14.395Z,24.48
2023-04-02T19:51:42.571Z,24.47
2023-04-02T19:54:09.637Z,24.50
2023-04-02T19:56:36.454Z,24.55
2023-04-02T19:59:17.258Z,24.53
2023-04-02T20:01:45.517Z,24.51
2023-04-02T20:04:12.677Z,24.53
2023-04-02T20:06:39.520Z,24.52
2023-04-02T20:09:07.707Z,24.51
2023-04-02T20:11:35.076Z,24.52
2023-04-02T20:14:02.275Z,24.48
2023-04-02T20:16:29.118Z,24.46
2023-04-02T20:18:56.626Z,24.47
2023-04-02T20:21:23.473Z,24.44
2023-04-02T20:23:52.699Z,24.42
2023-04-02T20:26:20.940Z,24.33
2023-04-02T20:28:47.789Z,24.37
2023-04-02T20:31:15.452Z,24.33
2023-04-02T20:33:42.969Z,24.34
2023-04-02T20:36:11.048Z,24.33
2023-04-02T20:38:37.916Z,24.32
2023-04-02T20:41:05.585Z,24.35
2023-04-02T20:43:34.180Z,24.36
2023-04-02T20:46:01.987Z,24.38
2023-04-02T20:48:29.210Z,24.37
2023-04-02T20:50:56.365Z,24.37
2023-04-02T20:53:23.196Z,24.37
2023-04-02T20:55:49.982Z,24.35
2023-04-02T20:58:17.887Z,24.35
2023-04-02T21:00:46.090Z,24.34
2023-04-02T21:03:12.898Z,24.33
2023-04-02T21:05:42.475Z,24.30
2023-04-02T21:08:09.340Z,24.31
2023-04-02T21:10:36.345Z,24.26
2023-04-02T21:13:03.287Z,24.20
2023-04-02T21:15:30.113Z,24.21
2023-04-02T21:17:58.362Z,24.13
2023-04-02T21:20:25.194Z,24.15
2023-04-02T21:22:52.029Z,24.23
2023-04-02T21:25:18.907Z,24.29
2023-04-02T21:27:45.779Z,24.37
2023-04-02T21:30:12.807Z,24.45
2023-04-02T21:32:39.679Z,24.44
2023-04-02T21:35:08.494Z,24.42
2023-04-02T21:37:35.359Z,24.43
2023-04-02T21:40:02.167Z,24.45
2023-04-02T21:42:28.973Z,24.42
2023-04-02T21:44:55.827Z,24.42
2023-04-02T21:47:22.698Z,24.38
2023-04-02T21:49:49.523Z,24.39
2023-04-02T21:52:17.863Z,24.41
2023-04-02T21:54:44.657Z,24.41
2023-04-02T21:57:11.630Z,24.42
2023-04-02T21:59:38.463Z,24.32
2023-04-02T22:02:05.262Z,24.29
2023-04-02T22:04:32.152Z,24.32
2023-04-02T22:06:59.074Z,24.29
2023-04-02T22:09:27.361Z,24.27
2023-04-02T22:11:55.031Z,24.28
2023-04-02T22:14:21.961Z,24.18
2023-04-02T22:16:48.853Z,24.29
2023-04-02T22:19:16.347Z,24.32
2023-04-02T22:21:43.618Z,24.37
2023-04-02T22:24:12.271Z,24.40
2023-04-02T22:26:40.621Z,24.40
2023-04-02T22:29:07.852Z,24.45
2023-04-02T22:31:35.069Z,24.37
2023-04-02T22:34:03.552Z,24.38
2023-04-02T22:36:30.839Z,24.33
2023-04-02T22:38:58.061Z,24.30
2023-04-02T22:41:25.719Z,24.30
2023-04-02T22:43:55.054Z,24.30
2023-04-02T22:46:22.117Z,24.27
2023-04-02T22:48:49.151Z,24.20
2023-04-02T22:51:18.332Z,24.17
2023-04-02T22:53:45.177Z,24.21
2023-04-02T22:56:12.968Z,24.27
2023-04-02T22:58:40.129Z,24.29
2023-04-02T23:01:09.562Z,24.25
2023-04-02T23:03:36.413Z,24.22
2023-04-02T23:06:04.722Z,24.24
2023-04-02T23:08:31.554Z,24.26
2023-04-02T23:11:01.910Z,24.28
2023-04-02T23:13:28.980Z,24.26
2023-04-02T23:15:55.934Z,24.26
2023-04-02T23:18:24.255Z,24.26
2023-04-02T23:20:51.181Z,24.27
2023-04-02T23:23:17.984Z,24.24
2023-04-02T23:25:44.783Z,24.23
2023-04-02T23:28:12.306Z,24.21
2023-04-02T23:30:40.484Z,24.20
2023-04-02T23:33:07.379Z,24.21
2023-04-02T23:35:35.659Z,24.14
2023-04-02T23:38:02.489Z,24.15
2023-04-02T23:40:29.287Z,24.15
2023-04-02T23:42:56.109Z,24.15
2023-04-02T23:45:23.017Z,24.17
2023-04-02T23:47:49.845Z,24.14
2023-04-02T23:50:16.791Z,24.15
2023-04-02T23:52:44.962Z,24.18
2023-04-02T23:55:11.798Z,24.19
2023-04-02T23:57:38.628Z,24.20
